sensor_id;sensor_type;location;lat;lon;timestamp;P1;durP1;ratioP1;P2;durP2;ratioP2
74344;SDS011;62776;50.518;6.732;2023-12-04T00:02:23;6.45;;;4.50;;
74344;SDS011;62776;50.518;6.732;2023-12-04T00:05:18;4.40;;;4.07;;
74344;SDS011;62776;50.518;6.732;2023-12-04T00:10:53;4.00;;;3.70;;
74344;SDS011;62776;50.518;6.732;2023-12-04T00:13:40;4.22;;;3.92;;
74344;SDS011;62776;50.518;6.732;2023-12-04T00:16:26;4.55;;;4.15;;
74344;SDS011;62776;50.518;6.732;2023-12-04T00:19:12;4.88;;;4.47;;
74344;SDS011;62776;50.518;6.732;2023-12-04T00:21:59;4.55;;;4.22;;
74344;SDS011;62776;50.518;6.732;2023-12-04T00:24:45;5.68;;;5.18;;
74344;SDS011;62776;50.518;6.732;2023-12-04T00:27:31;4.07;;;3.78;;
74344;SDS011;62776;50.518;6.732;2023-12-04T00:30:19;3.83;;;3.53;;
74344;SDS011;62776;50.518;6.732;2023-12-04T00:33:05;4.25;;;3.95;;
74344;SDS011;62776;50.518;6.732;2023-12-04T00:35:51;4.30;;;4.00;;
74344;SDS011;62776;50.518;6.732;2023-12-04T00:38:37;4.63;;;4.32;;
74344;SDS011;62776;50.518;6.732;2023-12-04T00:41:23;4.38;;;4.07;;
74344;SDS011;62776;50.518;6.732;2023-12-04T00:44:10;4.07;;;3.78;;
74344;SDS011;62776;50.518;6.732;2023-12-04T00:46:56;4.05;;;3.65;;
74344;SDS011;62776;50.518;6.732;2023-12-04T00:49:43;4.13;;;3.83;;
74344;SDS011;62776;50.518;6.732;2023-12-04T00:52:29;3.95;;;3.65;;
74344;SDS011;62776;50.518;6.732;2023-12-04T00:55:15;3.92;;;3.63;;
74344;SDS011;62776;50.518;6.732;2023-12-04T00:58:01;3.90;;;3.60;;
74344;SDS011;62776;50.518;6.732;2023-12-04T01:00:47;4.07;;;3.78;;
74344;SDS011;62776;50.518;6.732;2023-12-04T01:03:37;4.15;;;3.85;;
74344;SDS011;62776;50.518;6.732;2023-12-04T01:06:26;3.75;;;3.45;;
74344;SDS011;62776;50.518;6.732;2023-12-04T01:09:13;4.13;;;3.83;;
74344;SDS011;62776;50.518;6.732;2023-12-04T01:11:59;3.88;;;3.58;;
74344;SDS011;62776;50.518;6.732;2023-12-04T01:14:48;3.72;;;3.50;;
74344;SDS011;62776;50.518;6.732;2023-12-04T01:17:35;3.17;;;2.97;;
74344;SDS011;62776;50.518;6.732;2023-12-04T01:20:21;3.67;;;3.38;;
74344;SDS011;62776;50.518;6.732;2023-12-04T01:23:08;3.40;;;3.20;;
74344;SDS011;62776;50.518;6.732;2023-12-04T01:25:54;3.72;;;3.42;;
74344;SDS011;62776;50.518;6.732;2023-12-04T01:28:41;3.10;;;2.90;;
74344;SDS011;62776;50.518;6.732;2023-12-04T01:31:30;3.55;;;3.35;;
74344;SDS011;62776;50.518;6.732;2023-12-04T01:34:16;3.90;;;3.60;;
74344;SDS011;62776;50.518;6.732;2023-12-04T01:37:03;3.78;;;3.47;;
74344;SDS011;62776;50.518;6.732;2023-12-04T01:39:49;3.50;;;3.20;;
74344;SDS011;62776;50.518;6.732;2023-12-04T01:42:35;3.45;;;3.25;;
74344;SDS011;62776;50.518;6.732;2023-12-04T01:45:22;3.00;;;2.80;;
74344;SDS011;62776;50.518;6.732;2023-12-04T01:48:08;3.47;;;3.28;;
74344;SDS011;62776;50.518;6.732;2023-12-04T01:51:01;3.67;;;3.38;;
74344;SDS011;62776;50.518;6.732;2023-12-04T01:53:51;3.17;;;2.97;;
74344;SDS011;62776;50.518;6.732;2023-12-04T01:56:39;3.17;;;2.97;;
74344;SDS011;62776;50.518;6.732;2023-12-04T01:59:25;3.42;;;3.13;;
74344;SDS011;62776;50.518;6.732;2023-12-04T02:02:19;3.38;;;3.17;;
74344;SDS011;62776;50.518;6.732;2023-12-04T02:05:07;3.35;;;3.15;;
74344;SDS011;62776;50.518;6.732;2023-12-04T02:07:58;3.22;;;3.03;;
74344;SDS011;62776;50.518;6.732;2023-12-04T02:10:45;2.90;;;2.70;;
74344;SDS011;62776;50.518;6.732;2023-12-04T02:13:31;3.60;;;3.30;;
74344;SDS011;62776;50.518;6.732;2023-12-04T02:16:20;3.63;;;3.33;;
74344;SDS011;62776;50.518;6.732;2023-12-04T02:19:12;3.50;;;3.28;;
74344;SDS011;62776;50.518;6.732;2023-12-04T02:21:59;3.17;;;2.97;;
74344;SDS011;62776;50.518;6.732;2023-12-04T02:24:46;3.05;;;2.85;;
74344;SDS011;62776;50.518;6.732;2023-12-04T02:27:33;3.47;;;3.17;;
74344;SDS011;62776;50.518;6.732;2023-12-04T02:30:28;3.22;;;3.03;;
74344;SDS011;62776;50.518;6.732;2023-12-04T02:33:16;3.45;;;3.25;;
74344;SDS011;62776;50.518;6.732;2023-12-04T02:36:07;3.05;;;2.85;;
74344;SDS011;62776;50.518;6.732;2023-12-04T02:39:08;3.33;;;3.13;;
74344;SDS011;62776;50.518;6.732;2023-12-04T02:41:59;3.10;;;2.90;;
74344;SDS011;62776;50.518;6.732;2023-12-04T02:44:46;2.90;;;2.70;;
74344;SDS011;62776;50.518;6.732;2023-12-04T02:47:32;2.92;;;2.72;;
74344;SDS011;62776;50.518;6.732;2023-12-04T02:50:20;2.78;;;2.58;;
74344;SDS011;62776;50.518;6.732;2023-12-04T02:53:06;2.83;;;2.63;;
74344;SDS011;62776;50.518;6.732;2023-12-04T02:55:53;2.30;;;2.15;;
74344;SDS011;62776;50.518;6.732;2023-12-04T02:58:39;2.90;;;2.70;;
74344;SDS011;62776;50.518;6.732;2023-12-04T03:01:25;2.83;;;2.63;;
74344;SDS011;62776;50.518;6.732;2023-12-04T03:04:26;2.70;;;2.50;;
74344;SDS011;62776;50.518;6.732;2023-12-04T03:07:16;3.17;;;2.97;;
74344;SDS011;62776;50.518;6.732;2023-12-04T03:10:05;2.95;;;2.75;;
74344;SDS011;62776;50.518;6.732;2023-12-04T03:12:51;2.70;;;2.50;;
74344;SDS011;62776;50.518;6.732;2023-12-04T03:15:37;2.70;;;2.50;;
74344;SDS011;62776;50.518;6.732;2023-12-04T03:18:24;2.95;;;2.75;;
74344;SDS011;62776;50.518;6.732;2023-12-04T03:21:10;3.05;;;2.60;;
74344;SDS011;62776;50.518;6.732;2023-12-04T03:23:57;2.42;;;2.30;;
74344;SDS011;62776;50.518;6.732;2023-12-04T03:26:46;2.65;;;2.45;;
74344;SDS011;62776;50.518;6.732;2023-12-04T03:29:35;2.42;;;2.22;;
74344;SDS011;62776;50.518;6.732;2023-12-04T03:32:21;2.70;;;2.50;;
74344;SDS011;62776;50.518;6.732;2023-12-04T03:35:07;3.00;;;2.80;;
74344;SDS011;62776;50.518;6.732;2023-12-04T03:37:57;2.45;;;2.30;;
74344;SDS011;62776;50.518;6.732;2023-12-04T03:40:46;2.35;;;2.25;;
74344;SDS011;62776;50.518;6.732;2023-12-04T03:43:32;2.60;;;2.40;;
74344;SDS011;62776;50.518;6.732;2023-12-04T03:46:18;3.00;;;2.80;;
74344;SDS011;62776;50.518;6.732;2023-12-04T03:49:05;2.47;;;2.28;;
74344;SDS011;62776;50.518;6.732;2023-12-04T03:51:51;2.83;;;2.53;;
74344;SDS011;62776;50.518;6.732;2023-12-04T03:54:40;2.67;;;2.47;;
74344;SDS011;62776;50.518;6.732;2023-12-04T03:57:28;2.22;;;2.13;;
74344;SDS011;62776;50.518;6.732;2023-12-04T04:00:14;2.10;;;2.00;;
74344;SDS011;62776;50.518;6.732;2023-12-04T04:03:01;2.35;;;2.25;;
74344;SDS011;62776;50.518;6.732;2023-12-04T04:05:48;2.47;;;2.38;;
74344;SDS011;62776;50.518;6.732;2023-12-04T04:08:36;1.90;;;1.80;;
74344;SDS011;62776;50.518;6.732;2023-12-04T04:11:28;2.03;;;1.92;;
74344;SDS011;62776;50.518;6.732;2023-12-04T04:14:14;2.40;;;2.28;;
74344;SDS011;62776;50.518;6.732;2023-12-04T04:17:01;2.33;;;2.13;;
74344;SDS011;62776;50.518;6.732;2023-12-04T04:19:47;2.13;;;2.03;;
74344;SDS011;62776;50.518;6.732;2023-12-04T04:22:33;2.47;;;2.28;;
74344;SDS011;62776;50.518;6.732;2023-12-04T04:25:22;2.10;;;2.00;;
74344;SDS011;62776;50.518;6.732;2023-12-04T04:28:09;2.10;;;1.92;;
74344;SDS011;62776;50.518;6.732;2023-12-04T04:30:57;1.90;;;1.80;;
74344;SDS011;62776;50.518;6.732;2023-12-04T04:33:47;2.22;;;2.13;;
74344;SDS011;62776;50.518;6.732;2023-12-04T04:36:33;2.15;;;2.05;;
74344;SDS011;62776;50.518;6.732;2023-12-04T04:39:20;1.98;;;1.88;;
74344;SDS011;62776;50.518;6.732;2023-12-04T04:42:06;2.42;;;2.33;;
74344;SDS011;62776;50.518;6.732;2023-12-04T04:44:53;2.33;;;2.15;;
74344;SDS011;62776;50.518;6.732;2023-12-04T04:47:39;2.10;;;2.00;;
74344;SDS011;62776;50.518;6.732;2023-12-04T04:50:25;2.35;;;2.20;;
74344;SDS011;62776;50.518;6.732;2023-12-04T04:53:11;2.45;;;2.30;;
74344;SDS011;62776;50.518;6.732;2023-12-04T04:55:58;2.10;;;2.00;;
74344;SDS011;62776;50.518;6.732;2023-12-04T04:58:44;2.33;;;2.13;;
74344;SDS011;62776;50.518;6.732;2023-12-04T05:01:30;2.10;;;2.00;;
74344;SDS011;62776;50.518;6.732;2023-12-04T05:04:17;2.17;;;2.08;;
74344;SDS011;62776;50.518;6.732;2023-12-04T05:07:03;2.50;;;2.30;;
74344;SDS011;62776;50.518;6.732;2023-12-04T05:09:49;1.90;;;1.80;;
74344;SDS011;62776;50.518;6.732;2023-12-04T05:12:35;2.50;;;2.30;;
74344;SDS011;62776;50.518;6.732;2023-12-04T05:15:22;2.08;;;1.98;;
74344;SDS011;62776;50.518;6.732;2023-12-04T05:18:08;2.70;;;2.50;;
74344;SDS011;62776;50.518;6.732;2023-12-04T05:20:54;2.20;;;2.10;;
74344;SDS011;62776;50.518;6.732;2023-12-04T05:23:41;2.10;;;2.00;;
74344;SDS011;62776;50.518;6.732;2023-12-04T05:26:27;1.75;;;1.65;;
74344;SDS011;62776;50.518;6.732;2023-12-04T05:29:13;1.63;;;1.52;;
74344;SDS011;62776;50.518;6.732;2023-12-04T05:31:59;1.63;;;1.52;;
74344;SDS011;62776;50.518;6.732;2023-12-04T05:34:45;1.80;;;1.70;;
74344;SDS011;62776;50.518;6.732;2023-12-04T05:37:32;1.75;;;1.65;;
74344;SDS011;62776;50.518;6.732;2023-12-04T05:40:19;1.70;;;1.60;;
74344;SDS011;62776;50.518;6.732;2023-12-04T05:43:05;1.80;;;1.70;;
74344;SDS011;62776;50.518;6.732;2023-12-04T05:45:53;2.08;;;1.98;;
74344;SDS011;62776;50.518;6.732;2023-12-04T05:48:39;2.13;;;2.03;;
74344;SDS011;62776;50.518;6.732;2023-12-04T05:51:26;2.08;;;1.98;;
74344;SDS011;62776;50.518;6.732;2023-12-04T05:54:12;1.90;;;1.70;;
74344;SDS011;62776;50.518;6.732;2023-12-04T05:56:58;1.98;;;1.88;;
74344;SDS011;62776;50.518;6.732;2023-12-04T05:59:44;1.80;;;1.70;;
74344;SDS011;62776;50.518;6.732;2023-12-04T06:02:31;1.98;;;1.88;;
74344;SDS011;62776;50.518;6.732;2023-12-04T06:05:17;2.00;;;1.90;;
74344;SDS011;62776;50.518;6.732;2023-12-04T06:08:04;1.90;;;1.80;;
74344;SDS011;62776;50.518;6.732;2023-12-04T06:10:50;2.30;;;2.10;;
74344;SDS011;62776;50.518;6.732;2023-12-04T06:13:36;2.20;;;2.10;;
74344;SDS011;62776;50.518;6.732;2023-12-04T06:16:22;1.90;;;1.80;;
74344;SDS011;62776;50.518;6.732;2023-12-04T06:19:08;2.05;;;1.90;;
74344;SDS011;62776;50.518;6.732;2023-12-04T06:21:56;2.38;;;2.17;;
74344;SDS011;62776;50.518;6.732;2023-12-04T06:24:46;1.80;;;1.70;;
74344;SDS011;62776;50.518;6.732;2023-12-04T06:27:33;2.10;;;2.00;;
74344;SDS011;62776;50.518;6.732;2023-12-04T06:30:19;2.25;;;2.15;;
74344;SDS011;62776;50.518;6.732;2023-12-04T06:33:07;2.10;;;2.00;;
74344;SDS011;62776;50.518;6.732;2023-12-04T06:35:54;2.78;;;2.58;;
74344;SDS011;62776;50.518;6.732;2023-12-04T06:38:46;1.90;;;1.80;;
74344;SDS011;62776;50.518;6.732;2023-12-04T06:41:39;2.30;;;2.10;;
74344;SDS011;62776;50.518;6.732;2023-12-04T06:44:26;1.98;;;1.88;;
74344;SDS011;62776;50.518;6.732;2023-12-04T06:47:12;2.00;;;1.90;;
74344;SDS011;62776;50.518;6.732;2023-12-04T06:50:01;2.30;;;2.20;;
74344;SDS011;62776;50.518;6.732;2023-12-04T06:52:51;2.70;;;2.50;;
74344;SDS011;62776;50.518;6.732;2023-12-04T06:55:37;2.08;;;1.98;;
74344;SDS011;62776;50.518;6.732;2023-12-04T06:58:24;3.05;;;2.85;;
74344;SDS011;62776;50.518;6.732;2023-12-04T07:01:10;2.47;;;2.30;;
74344;SDS011;62776;50.518;6.732;2023-12-04T07:03:57;2.47;;;2.28;;
74344;SDS011;62776;50.518;6.732;2023-12-04T07:06:43;2.55;;;2.35;;
74344;SDS011;62776;50.518;6.732;2023-12-04T07:09:42;2.78;;;2.58;;
74344;SDS011;62776;50.518;6.732;2023-12-04T07:12:28;2.83;;;2.58;;
74344;SDS011;62776;50.518;6.732;2023-12-04T07:15:19;2.40;;;2.25;;
74344;SDS011;62776;50.518;6.732;2023-12-04T07:18:07;2.88;;;2.67;;
74344;SDS011;62776;50.518;6.732;2023-12-04T07:20:53;3.30;;;3.10;;
74344;SDS011;62776;50.518;6.732;2023-12-04T07:23:40;2.78;;;2.58;;
74344;SDS011;62776;50.518;6.732;2023-12-04T07:26:26;2.65;;;2.45;;
74344;SDS011;62776;50.518;6.732;2023-12-04T07:29:12;3.10;;;2.90;;
74344;SDS011;62776;50.518;6.732;2023-12-04T07:31:59;2.60;;;2.40;;
74344;SDS011;62776;50.518;6.732;2023-12-04T07:34:47;2.90;;;2.70;;
74344;SDS011;62776;50.518;6.732;2023-12-04T07:37:33;3.20;;;3.00;;
74344;SDS011;62776;50.518;6.732;2023-12-04T07:40:22;3.08;;;2.88;;
74344;SDS011;62776;50.518;6.732;2023-12-04T07:43:08;2.80;;;2.50;;
74344;SDS011;62776;50.518;6.732;2023-12-04T07:45:55;3.10;;;2.90;;
74344;SDS011;62776;50.518;6.732;2023-12-04T07:48:42;3.00;;;2.80;;
74344;SDS011;62776;50.518;6.732;2023-12-04T07:51:30;3.20;;;3.00;;
74344;SDS011;62776;50.518;6.732;2023-12-04T07:54:22;3.00;;;2.80;;
74344;SDS011;62776;50.518;6.732;2023-12-04T07:57:12;2.80;;;2.60;;
74344;SDS011;62776;50.518;6.732;2023-12-04T07:59:59;2.83;;;2.63;;
74344;SDS011;62776;50.518;6.732;2023-12-04T08:02:45;2.65;;;2.45;;
74344;SDS011;62776;50.518;6.732;2023-12-04T08:05:31;3.13;;;2.83;;
74344;SDS011;62776;50.518;6.732;2023-12-04T08:08:21;3.20;;;3.00;;
74344;SDS011;62776;50.518;6.732;2023-12-04T08:11:09;2.95;;;2.75;;
74344;SDS011;62776;50.518;6.732;2023-12-04T08:13:59;3.20;;;3.00;;
74344;SDS011;62776;50.518;6.732;2023-12-04T08:16:48;2.97;;;2.78;;
74344;SDS011;62776;50.518;6.732;2023-12-04T08:19:34;3.22;;;3.03;;
74344;SDS011;62776;50.518;6.732;2023-12-04T08:22:22;3.00;;;2.80;;
74344;SDS011;62776;50.518;6.732;2023-12-04T08:25:08;2.80;;;2.60;;
74344;SDS011;62776;50.518;6.732;2023-12-04T08:27:58;2.97;;;2.70;;
74344;SDS011;62776;50.518;6.732;2023-12-04T08:30:45;2.70;;;2.50;;
74344;SDS011;62776;50.518;6.732;2023-12-04T08:33:31;2.50;;;2.30;;
74344;SDS011;62776;50.518;6.732;2023-12-04T08:36:17;2.78;;;2.58;;
74344;SDS011;62776;50.518;6.732;2023-12-04T08:39:03;2.78;;;2.58;;
74344;SDS011;62776;50.518;6.732;2023-12-04T08:41:50;2.97;;;2.78;;
74344;SDS011;62776;50.518;6.732;2023-12-04T08:44:38;3.40;;;3.10;;
74344;SDS011;62776;50.518;6.732;2023-12-04T08:47:27;3.20;;;3.00;;
74344;SDS011;62776;50.518;6.732;2023-12-04T08:50:15;3.08;;;2.88;;
74344;SDS011;62776;50.518;6.732;2023-12-04T08:53:02;3.10;;;2.90;;
74344;SDS011;62776;50.518;6.732;2023-12-04T08:55:48;3.00;;;2.80;;
74344;SDS011;62776;50.518;6.732;2023-12-04T08:58:37;3.25;;;3.05;;
74344;SDS011;62776;50.518;6.732;2023-12-04T09:01:23;3.08;;;2.88;;
74344;SDS011;62776;50.518;6.732;2023-12-04T09:04:10;2.60;;;2.40;;
74344;SDS011;62776;50.518;6.732;2023-12-04T09:06:57;2.97;;;2.78;;
74344;SDS011;62776;50.518;6.732;2023-12-04T09:09:43;3.28;;;3.08;;
74344;SDS011;62776;50.518;6.732;2023-12-04T09:12:31;2.90;;;2.60;;
74344;SDS011;62776;50.518;6.732;2023-12-04T09:15:20;2.90;;;2.70;;
74344;SDS011;62776;50.518;6.732;2023-12-04T09:18:07;2.70;;;2.50;;
74344;SDS011;62776;50.518;6.732;2023-12-04T09:20:53;2.90;;;2.70;;
74344;SDS011;62776;50.518;6.732;2023-12-04T09:23:39;2.80;;;2.60;;
74344;SDS011;62776;50.518;6.732;2023-12-04T09:26:26;3.63;;;3.33;;
74344;SDS011;62776;50.518;6.732;2023-12-04T09:29:12;3.30;;;2.80;;
74344;SDS011;62776;50.518;6.732;2023-12-04T09:31:58;2.30;;;2.13;;
74344;SDS011;62776;50.518;6.732;2023-12-04T09:34:45;2.90;;;2.70;;
74344;SDS011;62776;50.518;6.732;2023-12-04T09:37:33;3.60;;;2.67;;
74344;SDS011;62776;50.518;6.732;2023-12-04T09:40:19;2.92;;;2.72;;
74344;SDS011;62776;50.518;6.732;2023-12-04T09:43:08;2.85;;;2.63;;
74344;SDS011;62776;50.518;6.732;2023-12-04T09:45:56;3.50;;;3.20;;
74344;SDS011;62776;50.518;6.732;2023-12-04T09:48:59;3.00;;;2.80;;
74344;SDS011;62776;50.518;6.732;2023-12-04T09:51:53;2.72;;;2.50;;
74344;SDS011;62776;50.518;6.732;2023-12-04T09:54:42;2.70;;;2.42;;
74344;SDS011;62776;50.518;6.732;2023-12-04T09:57:30;2.95;;;2.75;;
74344;SDS011;62776;50.518;6.732;2023-12-04T10:00:16;3.47;;;3.20;;
74344;SDS011;62776;50.518;6.732;2023-12-04T10:03:05;2.95;;;2.75;;
74344;SDS011;62776;50.518;6.732;2023-12-04T10:05:51;2.55;;;2.35;;
74344;SDS011;62776;50.518;6.732;2023-12-04T10:08:39;2.65;;;2.45;;
74344;SDS011;62776;50.518;6.732;2023-12-04T10:11:25;3.42;;;3.17;;
74344;SDS011;62776;50.518;6.732;2023-12-04T10:14:15;3.03;;;2.83;;
74344;SDS011;62776;50.518;6.732;2023-12-04T10:17:23;3.28;;;3.00;;
74344;SDS011;62776;50.518;6.732;2023-12-04T10:20:15;4.55;;;3.10;;
74344;SDS011;62776;50.518;6.732;2023-12-04T10:23:05;2.88;;;2.67;;
74344;SDS011;62776;50.518;6.732;2023-12-04T10:26:01;3.28;;;2.97;;
74344;SDS011;62776;50.518;6.732;2023-12-04T10:28:59;2.97;;;2.78;;
74344;SDS011;62776;50.518;6.732;2023-12-04T10:31:47;3.60;;;3.40;;
74344;SDS011;62776;50.518;6.732;2023-12-04T10:34:58;3.05;;;2.85;;
74344;SDS011;62776;50.518;6.732;2023-12-04T10:37:46;3.30;;;3.10;;
74344;SDS011;62776;50.518;6.732;2023-12-04T10:40:33;3.42;;;3.13;;
74344;SDS011;62776;50.518;6.732;2023-12-04T10:43:24;3.30;;;3.10;;
74344;SDS011;62776;50.518;6.732;2023-12-04T10:46:13;3.50;;;3.28;;
74344;SDS011;62776;50.518;6.732;2023-12-04T10:49:03;3.47;;;3.17;;
74344;SDS011;62776;50.518;6.732;2023-12-04T10:51:50;3.72;;;3.42;;
74344;SDS011;62776;50.518;6.732;2023-12-04T10:54:37;2.92;;;2.72;;
74344;SDS011;62776;50.518;6.732;2023-12-04T10:57:27;5.90;;;3.30;;
74344;SDS011;62776;50.518;6.732;2023-12-04T11:00:21;3.65;;;3.40;;
74344;SDS011;62776;50.518;6.732;2023-12-04T11:03:09;3.22;;;3.03;;
74344;SDS011;62776;50.518;6.732;2023-12-04T11:06:10;3.92;;;3.63;;
74344;SDS011;62776;50.518;6.732;2023-12-04T11:09:01;3.13;;;2.92;;
74344;SDS011;62776;50.518;6.732;2023-12-04T11:11:51;3.40;;;3.10;;
74344;SDS011;62776;50.518;6.732;2023-12-04T11:14:46;3.25;;;3.05;;
74344;SDS011;62776;50.518;6.732;2023-12-04T11:17:38;2.95;;;2.75;;
74344;SDS011;62776;50.518;6.732;2023-12-04T11:20:29;3.63;;;3.22;;
74344;SDS011;62776;50.518;6.732;2023-12-04T11:23:21;3.28;;;2.90;;
74344;SDS011;62776;50.518;6.732;2023-12-04T11:26:08;2.53;;;2.33;;
74344;SDS011;62776;50.518;6.732;2023-12-04T11:28:56;2.92;;;2.65;;
74344;SDS011;62776;50.518;6.732;2023-12-04T11:31:42;3.28;;;3.08;;
74344;SDS011;62776;50.518;6.732;2023-12-04T11:34:30;11.15;;;10.15;;
74344;SDS011;62776;50.518;6.732;2023-12-04T11:37:17;7.65;;;6.93;;
74344;SDS011;62776;50.518;6.732;2023-12-04T11:40:06;4.78;;;4.38;;
74344;SDS011;62776;50.518;6.732;2023-12-04T11:42:53;3.10;;;2.90;;
74344;SDS011;62776;50.518;6.732;2023-12-04T11:45:39;2.75;;;2.55;;
74344;SDS011;62776;50.518;6.732;2023-12-04T11:48:26;3.00;;;2.67;;
74344;SDS011;62776;50.518;6.732;2023-12-04T11:51:14;2.70;;;2.50;;
74344;SDS011;62776;50.518;6.732;2023-12-04T11:54:23;2.70;;;2.50;;
74344;SDS011;62776;50.518;6.732;2023-12-04T12:00:18;2.40;;;2.20;;
74344;SDS011;62776;50.518;6.732;2023-12-04T12:03:07;2.90;;;2.70;;
74344;SDS011;62776;50.518;6.732;2023-12-04T12:05:54;2.83;;;2.63;;
74344;SDS011;62776;50.518;6.732;2023-12-04T12:08:41;2.90;;;2.70;;
74344;SDS011;62776;50.518;6.732;2023-12-04T12:11:27;3.15;;;2.88;;
74344;SDS011;62776;50.518;6.732;2023-12-04T12:14:14;3.25;;;3.05;;
74344;SDS011;62776;50.518;6.732;2023-12-04T12:17:00;2.13;;;2.03;;
74344;SDS011;62776;50.518;6.732;2023-12-04T12:19:47;2.17;;;2.08;;
74344;SDS011;62776;50.518;6.732;2023-12-04T12:22:33;2.80;;;2.60;;
74344;SDS011;62776;50.518;6.732;2023-12-04T12:25:21;2.58;;;2.38;;
74344;SDS011;62776;50.518;6.732;2023-12-04T12:28:07;2.53;;;2.33;;
74344;SDS011;62776;50.518;6.732;2023-12-04T12:31:01;2.83;;;2.63;;
74344;SDS011;62776;50.518;6.732;2023-12-04T12:33:48;2.53;;;2.20;;
74344;SDS011;62776;50.518;6.732;2023-12-04T12:36:35;1.90;;;1.80;;
74344;SDS011;62776;50.518;6.732;2023-12-04T12:39:22;2.38;;;2.28;;
74344;SDS011;62776;50.518;6.732;2023-12-04T12:42:10;2.40;;;2.30;;
74344;SDS011;62776;50.518;6.732;2023-12-04T12:45:08;2.50;;;2.33;;
74344;SDS011;62776;50.518;6.732;2023-12-04T12:47:59;2.58;;;2.40;;
74344;SDS011;62776;50.518;6.732;2023-12-04T12:50:49;2.13;;;2.03;;
74344;SDS011;62776;50.518;6.732;2023-12-04T12:53:36;2.22;;;2.10;;
74344;SDS011;62776;50.518;6.732;2023-12-04T12:56:25;1.70;;;1.60;;
74344;SDS011;62776;50.518;6.732;2023-12-04T12:59:11;1.67;;;1.58;;
74344;SDS011;62776;50.518;6.732;2023-12-04T13:01:58;2.10;;;2.00;;
74344;SDS011;62776;50.518;6.732;2023-12-04T13:04:47;2.03;;;1.92;;
74344;SDS011;62776;50.518;6.732;2023-12-04T13:07:35;1.88;;;1.77;;
74344;SDS011;62776;50.518;6.732;2023-12-04T13:10:22;1.45;;;1.40;;
74344;SDS011;62776;50.518;6.732;2023-12-04T13:13:13;1.77;;;1.67;;
74344;SDS011;62776;50.518;6.732;2023-12-04T13:16:00;2.03;;;1.92;;
74344;SDS011;62776;50.518;6.732;2023-12-04T13:18:47;1.75;;;1.65;;
74344;SDS011;62776;50.518;6.732;2023-12-04T13:21:33;2.30;;;2.10;;
74344;SDS011;62776;50.518;6.732;2023-12-04T13:24:19;1.60;;;1.50;;
74344;SDS011;62776;50.518;6.732;2023-12-04T13:27:09;1.75;;;1.65;;
74344;SDS011;62776;50.518;6.732;2023-12-04T13:30:07;1.73;;;1.63;;
74344;SDS011;62776;50.518;6.732;2023-12-04T13:32:55;2.15;;;2.05;;
74344;SDS011;62776;50.518;6.732;2023-12-04T13:35:41;1.65;;;1.55;;
74344;SDS011;62776;50.518;6.732;2023-12-04T13:38:27;1.77;;;1.67;;
74344;SDS011;62776;50.518;6.732;2023-12-04T13:41:14;1.70;;;1.60;;
74344;SDS011;62776;50.518;6.732;2023-12-04T13:44:18;1.42;;;1.33;;
74344;SDS011;62776;50.518;6.732;2023-12-04T13:47:07;1.80;;;1.70;;
74344;SDS011;62776;50.518;6.732;2023-12-04T13:49:53;1.77;;;1.67;;
74344;SDS011;62776;50.518;6.732;2023-12-04T13:52:40;2.00;;;1.90;;
74344;SDS011;62776;50.518;6.732;2023-12-04T13:55:38;1.95;;;1.85;;
74344;SDS011;62776;50.518;6.732;2023-12-04T13:58:53;1.80;;;1.70;;
74344;SDS011;62776;50.518;6.732;2023-12-04T14:01:42;2.13;;;1.90;;
74344;SDS011;62776;50.518;6.732;2023-12-04T14:04:28;2.03;;;1.92;;
74344;SDS011;62776;50.518;6.732;2023-12-04T14:07:15;1.85;;;1.75;;
74344;SDS011;62776;50.518;6.732;2023-12-04T14:10:04;2.15;;;2.05;;
74344;SDS011;62776;50.518;6.732;2023-12-04T14:12:56;2.08;;;1.98;;
74344;SDS011;62776;50.518;6.732;2023-12-04T14:15:43;2.40;;;2.20;;
74344;SDS011;62776;50.518;6.732;2023-12-04T14:18:29;1.73;;;1.63;;
74344;SDS011;62776;50.518;6.732;2023-12-04T14:21:18;2.03;;;1.92;;
74344;SDS011;62776;50.518;6.732;2023-12-04T14:24:05;1.90;;;1.80;;
74344;SDS011;62776;50.518;6.732;2023-12-04T14:26:54;1.95;;;1.85;;
74344;SDS011;62776;50.518;6.732;2023-12-04T14:29:43;1.95;;;1.85;;
74344;SDS011;62776;50.518;6.732;2023-12-04T14:32:30;1.92;;;1.83;;
74344;SDS011;62776;50.518;6.732;2023-12-04T14:35:16;1.95;;;1.85;;
74344;SDS011;62776;50.518;6.732;2023-12-04T14:38:04;2.03;;;1.92;;
74344;SDS011;62776;50.518;6.732;2023-12-04T14:40:51;2.10;;;2.00;;
74344;SDS011;62776;50.518;6.732;2023-12-04T14:43:37;3.03;;;2.83;;
74344;SDS011;62776;50.518;6.732;2023-12-04T14:46:26;2.85;;;2.65;;
74344;SDS011;62776;50.518;6.732;2023-12-04T14:49:13;2.25;;;2.15;;
74344;SDS011;62776;50.518;6.732;2023-12-04T14:51:59;2.90;;;2.70;;
74344;SDS011;62776;50.518;6.732;2023-12-04T14:54:49;2.13;;;2.03;;
74344;SDS011;62776;50.518;6.732;2023-12-04T14:57:53;2.38;;;2.28;;
74344;SDS011;62776;50.518;6.732;2023-12-04T15:01:02;2.20;;;2.10;;
74344;SDS011;62776;50.518;6.732;2023-12-04T15:03:56;2.40;;;2.25;;
74344;SDS011;62776;50.518;6.732;2023-12-04T15:07:17;2.47;;;2.38;;
74344;SDS011;62776;50.518;6.732;2023-12-04T15:10:22;2.40;;;2.30;;
74344;SDS011;62776;50.518;6.732;2023-12-04T15:13:11;2.10;;;2.00;;
74344;SDS011;62776;50.518;6.732;2023-12-04T15:16:01;2.38;;;2.13;;
74344;SDS011;62776;50.518;6.732;2023-12-04T15:19:06;2.28;;;2.10;;
74344;SDS011;62776;50.518;6.732;2023-12-04T15:21:55;2.05;;;1.95;;
74344;SDS011;62776;50.518;6.732;2023-12-04T15:24:41;2.72;;;2.53;;
74344;SDS011;62776;50.518;6.732;2023-12-04T15:27:30;1.77;;;1.67;;
74344;SDS011;62776;50.518;6.732;2023-12-04T15:30:16;2.20;;;2.10;;
74344;SDS011;62776;50.518;6.732;2023-12-04T15:33:05;2.70;;;2.50;;
74344;SDS011;62776;50.518;6.732;2023-12-04T15:35:52;2.45;;;2.33;;
74344;SDS011;62776;50.518;6.732;2023-12-04T15:38:41;2.42;;;2.30;;
74344;SDS011;62776;50.518;6.732;2023-12-04T15:41:32;2.13;;;2.03;;
74344;SDS011;62776;50.518;6.732;2023-12-04T15:44:19;2.22;;;2.10;;
74344;SDS011;62776;50.518;6.732;2023-12-04T15:47:06;2.50;;;2.30;;
74344;SDS011;62776;50.518;6.732;2023-12-04T15:49:52;3.50;;;3.25;;
74344;SDS011;62776;50.518;6.732;2023-12-04T15:52:38;2.95;;;2.75;;
74344;SDS011;62776;50.518;6.732;2023-12-04T15:55:27;2.78;;;2.58;;
74344;SDS011;62776;50.518;6.732;2023-12-04T15:58:16;2.30;;;2.17;;
74344;SDS011;62776;50.518;6.732;2023-12-04T16:01:02;2.40;;;2.30;;
74344;SDS011;62776;50.518;6.732;2023-12-04T16:03:54;2.30;;;2.20;;
74344;SDS011;62776;50.518;6.732;2023-12-04T16:06:41;2.22;;;2.13;;
74344;SDS011;62776;50.518;6.732;2023-12-04T16:09:30;2.00;;;1.90;;
74344;SDS011;62776;50.518;6.732;2023-12-04T16:12:19;3.28;;;3.08;;
74344;SDS011;62776;50.518;6.732;2023-12-04T16:15:10;2.88;;;2.67;;
74344;SDS011;62776;50.518;6.732;2023-12-04T16:17:57;2.90;;;2.15;;
74344;SDS011;62776;50.518;6.732;2023-12-04T16:20:43;2.25;;;2.15;;
74344;SDS011;62776;50.518;6.732;2023-12-04T16:23:31;2.75;;;2.55;;
74344;SDS011;62776;50.518;6.732;2023-12-04T16:26:19;9.27;;;8.43;;
74344;SDS011;62776;50.518;6.732;2023-12-04T16:29:05;2.95;;;2.75;;
74344;SDS011;62776;50.518;6.732;2023-12-04T16:31:52;2.35;;;2.17;;
74344;SDS011;62776;50.518;6.732;2023-12-04T16:34:38;2.33;;;2.22;;
74344;SDS011;62776;50.518;6.732;2023-12-04T16:37:27;2.30;;;2.20;;
74344;SDS011;62776;50.518;6.732;2023-12-04T16:40:13;2.47;;;2.33;;
74344;SDS011;62776;50.518;6.732;2023-12-04T16:43:00;2.25;;;2.15;;
74344;SDS011;62776;50.518;6.732;2023-12-04T16:45:46;2.22;;;2.13;;
74344;SDS011;62776;50.518;6.732;2023-12-04T16:48:34;2.17;;;2.08;;
74344;SDS011;62776;50.518;6.732;2023-12-04T16:51:20;2.35;;;2.25;;
74344;SDS011;62776;50.518;6.732;2023-12-04T16:54:07;2.20;;;2.10;;
74344;SDS011;62776;50.518;6.732;2023-12-04T16:56:54;2.30;;;2.20;;
74344;SDS011;62776;50.518;6.732;2023-12-04T16:59:40;2.67;;;2.50;;
74344;SDS011;62776;50.518;6.732;2023-12-04T17:02:26;2.38;;;2.03;;